createdAt,value
2023-03-17T00:01:16.362Z,51.80
2023-03-17T00:03:45.545Z,51.65
2023-03-17T00:06:16.686Z,52.27
2023-03-17T00:08:44.147Z,52.02
2023-03-17T00:11:16.290Z,52.48
2023-03-17T00:13:44.562Z,52.00
2023-03-17T00:16:16.954Z,51.77
2023-03-17T00:18:44.660Z,51.86
2023-03-17T00:21:19.517Z,51.48
2023-03-17T00:23:49.715Z,51.86
2023-03-17T00:26:17.530Z,51.36
2023-03-17T00:28:46.160Z,51.87
2023-03-17T00:31:15.107Z,51.55
2023-03-17T00:33:43.037Z,51.94
2023-03-17T00:36:16.652Z,52.44
2023-03-17T00:38:43.674Z,52.16
2023-03-17T00:41:11.309Z,52.24
2023-03-17T00:43:38.147Z,51.93
2023-03-17T00:46:25.166Z,52.03
2023-03-17T00:48:51.963Z,52.41
2023-03-17T00:51:18.424Z,52.52
2023-03-17T00:53:45.769Z,52.70
2023-03-17T00:56:15.735Z,52.25
2023-03-17T00:58:43.238Z,52.43
2023-03-17T01:01:13.388Z,52.13
2023-03-17T01:03:43.169Z,52.71
2023-03-17T01:06:12.898Z,52.95
2023-03-17T01:08:40.669Z,53.47
2023-03-17T01:11:10.585Z,52.83
2023-03-17T01:13:37.052Z,52.72
2023-03-17T01:16:03.637Z,52.75
2023-03-17T01:18:30.199Z,52.56
2023-03-17T01:20:56.696Z,51.95
2023-03-17T01:23:23.109Z,52.37
2023-03-17T01:25:50.114Z,52.44
2023-03-17T01:28:18.481Z,52.51
2023-03-17T01:30:45.499Z,52.38
2023-03-17T01:33:14.528Z,52.08
2023-03-17T01:35:43.647Z,52.22
2023-03-17T01:38:10.571Z,51.69
2023-03-17T01:40:42.694Z,52.60
2023-03-17T01:43:09.144Z,52.01
2023-03-17T01:46:13.253Z,53.50
2023-03-17T01:48:44.609Z,53.05
2023-03-17T01:51:35.800Z,53.19
2023-03-17T01:54:08.332Z,52.88
2023-03-17T01:56:36.343Z,52.83
2023-03-17T01:59:07.418Z,52.49
2023-03-17T02:01:38.577Z,52.29
2023-03-17T02:04:06.412Z,52.79
2023-03-17T02:06:33.656Z,52.84
2023-03-17T02:09:04.456Z,52.72
2023-03-17T02:11:34.237Z,52.99
2023-03-17T02:14:00.662Z,53.38
2023-03-17T02:16:29.962Z,53.05
2023-03-17T02:18:56.549Z,52.96
2023-03-17T02:21:37.106Z,53.21
2023-03-17T02:24:07.913Z,53.10
2023-03-17T02:26:36.226Z,53.79
2023-03-17T02:29:09.406Z,53.18
2023-03-17T02:31:38.698Z,53.48
2023-03-17T02:34:07.720Z,53.03
2023-03-17T02:36:35.979Z,53.46
2023-03-17T02:39:06.777Z,53.78
2023-03-17T02:41:34.220Z,53.51
2023-03-17T02:44:06.370Z,53.87
2023-03-17T02:46:32.846Z,54.10
2023-03-17T02:49:00.613Z,53.97
2023-03-17T02:51:27.069Z,53.85
2023-03-17T02:53:53.515Z,53.56
2023-03-17T02:56:20.048Z,52.99
2023-03-17T02:58:51.574Z,53.88
2023-03-17T03:01:18.476Z,53.88
2023-03-17T03:03:45.010Z,54.02
2023-03-17T03:06:16.197Z,54.32
2023-03-17T03:08:42.789Z,54.36
2023-03-17T03:11:09.168Z,54.08
2023-03-17T03:13:36.600Z,54.25
2023-03-17T03:16:05.858Z,54.17
2023-03-17T03:18:34.585Z,54.20
2023-03-17T03:21:01.459Z,53.68
2023-03-17T03:23:28.140Z,53.95
2023-03-17T03:25:57.594Z,53.76
2023-03-17T03:28:24.274Z,54.12
2023-03-17T03:30:50.779Z,54.13
2023-03-17T03:33:17.940Z,54.00
2023-03-17T03:35:44.424Z,53.84
2023-03-17T03:38:12.986Z,53.79
2023-03-17T03:40:39.699Z,53.77
2023-03-17T03:43:16.235Z,53.91
2023-03-17T03:45:48.463Z,53.90
2023-03-17T03:48:14.967Z,53.98
2023-03-17T03:50:41.435Z,54.20
2023-03-17T03:53:07.857Z,54.03
2023-03-17T03:55:34.375Z,54.43
2023-03-17T03:58:03.298Z,54.39
2023-03-17T04:00:30.098Z,54.38
2023-03-17T04:02:56.657Z,54.39
2023-03-17T04:05:23.104Z,54.59
2023-03-17T04:07:49.641Z,54.27
2023-03-17T04:10:19.574Z,54.34
2023-03-17T04:12:49.923Z,54.71
2023-03-17T04:15:18.578Z,54.57
2023-03-17T04:17:45.334Z,54.87
2023-03-17T04:20:13.463Z,54.52
2023-03-17T04:22:41.641Z,55.19
2023-03-17T04:25:12.853Z,54.42
2023-03-17T04:27:39.254Z,54.73
2023-03-17T04:30:07.796Z,54.72
2023-03-17T04:32:34.682Z,54.77
2023-03-17T04:35:01.250Z,54.96
2023-03-17T04:37:27.653Z,54.62
2023-03-17T04:39:55.785Z,54.84
2023-03-17T04:42:22.317Z,54.78
2023-03-17T04:44:48.738Z,55.29
2023-03-17T04:47:18.289Z,55.07
2023-03-17T04:49:44.753Z,54.68
2023-03-17T04:52:11.464Z,54.78
2023-03-17T04:54:40.287Z,54.80
2023-03-17T04:57:06.899Z,54.87
2023-03-17T04:59:35.723Z,54.91
2023-03-17T05:02:02.355Z,54.68
2023-03-17T05:04:32.023Z,54.99
2023-03-17T05:06:59.293Z,55.17
2023-03-17T05:09:28.721Z,55.20
2023-03-17T05:11:55.634Z,55.07
2023-03-17T05:14:22.404Z,55.13
2023-03-17T05:16:49.474Z,54.93
2023-03-17T05:19:17.408Z,55.12
2023-03-17T05:21:44.168Z,54.66
2023-03-17T05:24:10.707Z,54.94
2023-03-17T05:26:37.583Z,55.13
2023-03-17T05:29:04.530Z,54.78
2023-03-17T05:31:31.874Z,54.89
2023-03-17T05:33:58.763Z,54.98
2023-03-17T05:36:25.138Z,55.45
2023-03-17T05:38:52.277Z,55.28
2023-03-17T05:41:18.623Z,55.37
2023-03-17T05:43:44.981Z,55.04
2023-03-17T05:46:11.376Z,55.52
2023-03-17T05:48:41.596Z,55.37
2023-03-17T05:51:08.526Z,55.12
2023-03-17T05:53:40.130Z,54.69
2023-03-17T05:56:09.326Z,55.21
2023-03-17T05:58:36.017Z,55.41
2023-03-17T06:01:18.106Z,55.09
2023-03-17T06:03:44.592Z,55.40
2023-03-17T06:06:10.996Z,55.40
2023-03-17T06:08:37.385Z,55.39
2023-03-17T06:11:03.728Z,55.08
2023-03-17T06:13:30.260Z,55.23
2023-03-17T06:15:57.469Z,55.03
2023-03-17T06:18:23.935Z,55.35
2023-03-17T06:20:50.646Z,55.09
2023-03-17T06:23:18.743Z,55.07
2023-03-17T06:25:45.101Z,55.28
2023-03-17T06:28:23.029Z,55.04
2023-03-17T06:30:50.026Z,55.00
2023-03-17T06:33:23.108Z,54.86
2023-03-17T06:35:49.520Z,54.72
2023-03-17T06:38:15.953Z,55.11
2023-03-17T06:40:42.392Z,55.03
2023-03-17T06:43:09.206Z,54.90
2023-03-17T06:45:35.960Z,55.29
2023-03-17T06:48:02.613Z,54.78
2023-03-17T06:50:29.093Z,55.13
2023-03-17T06:52:55.938Z,54.54
2023-03-17T06:55:22.329Z,54.90
2023-03-17T06:57:50.947Z,54.98
2023-03-17T07:00:22.367Z,54.86
2023-03-17T07:02:49.596Z,54.64
2023-03-17T07:05:16.136Z,55.06
2023-03-17T07:07:42.507Z,54.83
2023-03-17T07:10:13.683Z,54.73
2023-03-17T07:12:40.066Z,54.99
2023-03-17T07:15:06.890Z,54.76
2023-03-17T07:17:33.868Z,55.29
2023-03-17T07:20:00.286Z,55.29
2023-03-17T07:22:27.207Z,55.01
2023-03-17T07:24:53.590Z,55.36
2023-03-17T07:27:22.843Z,55.02
2023-03-17T07:29:49.576Z,55.00
2023-03-17T07:32:16.039Z,54.84
2023-03-17T07:34:42.642Z,54.46
2023-03-17T07:37:10.190Z,54.92
2023-03-17T07:39:36.557Z,54.53
2023-03-17T07:42:02.940Z,54.50
2023-03-17T07:44:29.384Z,54.99
2023-03-17T07:46:56.489Z,54.57
2023-03-17T07:49:34.297Z,54.23
2023-03-17T07:52:06.976Z,54.68
2023-03-17T07:54:33.627Z,54.80
2023-03-17T07:56:59.958Z,54.95
2023-03-17T07:59:26.344Z,55.06
2023-03-17T08:01:53.132Z,54.43
2023-03-17T08:04:19.513Z,54.38
2023-03-17T08:06:46.882Z,55.21
2023-03-17T08:09:13.278Z,54.68
2023-03-17T08:11:39.686Z,54.63
2023-03-17T08:14:06.642Z,55.25
2023-03-17T08:16:33.528Z,55.06
2023-03-17T08:19:00.191Z,54.75
2023-03-17T08:21:30.349Z,55.35
2023-03-17T08:23:56.779Z,55.74
2023-03-17T08:26:23.392Z,55.85
2023-03-17T08:28:50.222Z,55.51
2023-03-17T08:31:19.578Z,55.28
2023-03-17T08:33:48.487Z,54.86
2023-03-17T08:36:16.394Z,55.09
2023-03-17T08:38:45.066Z,55.62
2023-03-17T08:41:16.495Z,54.48
2023-03-17T08:43:44.001Z,54.45
2023-03-17T08:46:22.984Z,54.91
2023-03-17T08:48:51.117Z,54.95
2023-03-17T08:51:21.494Z,54.84
2023-03-17T08:53:49.716Z,55.40
2023-03-17T08:56:16.834Z,54.00
2023-03-17T08:58:49.278Z,54.77
2023-03-17T09:01:16.543Z,54.12
2023-03-17T09:03:52.323Z,53.26
2023-03-17T09:06:19.257Z,53.65
2023-03-17T09:08:47.405Z,53.33
2023-03-17T09:11:17.085Z,52.24
2023-03-17T09:13:44.830Z,52.39
2023-03-17T09:16:11.494Z,51.89
2023-03-17T09:18:38.878Z,50.90
2023-03-17T09:21:06.058Z,51.98
2023-03-17T09:23:33.570Z,51.73
2023-03-17T09:26:00.728Z,52.40
2023-03-17T09:28:27.692Z,52.91
2023-03-17T09:30:58.559Z,52.56
2023-03-17T09:33:25.762Z,51.27
2023-03-17T09:35:52.891Z,50.25
2023-03-17T09:38:19.371Z,50.46
2023-03-17T09:41:12.113Z,50.41
2023-03-17T09:43:55.564Z,49.72
2023-03-17T09:46:41.627Z,49.98
2023-03-17T09:49:11.905Z,49.55
2023-03-17T09:51:38.750Z,50.35
2023-03-17T09:54:12.768Z,50.04
2023-03-17T09:56:43.972Z,49.73
2023-03-17T09:59:30.384Z,49.50
2023-03-17T10:01:57.587Z,50.13
2023-03-17T10:04:24.718Z,49.78
2023-03-17T10:06:57.794Z,50.20
2023-03-17T10:09:46.544Z,50.44
2023-03-17T10:12:27.978Z,49.80
2023-03-17T10:15:02.692Z,49.67
2023-03-17T10:17:37.499Z,50.82
2023-03-17T10:20:09.040Z,48.94
2023-03-17T10:22:42.912Z,49.00
2023-03-17T10:25:14.924Z,48.05
2023-03-17T10:27:45.394Z,48.34
2023-03-17T10:30:17.154Z,48.44
2023-03-17T10:32:46.657Z,48.29
2023-03-17T10:35:16.082Z,48.19
2023-03-17T10:37:44.061Z,47.83
2023-03-17T10:40:21.889Z,47.57
2023-03-17T10:42:53.131Z,47.21
2023-03-17T10:45:30.720Z,46.63
2023-03-17T10:47:58.611Z,44.91
2023-03-17T10:50:40.992Z,40.38
2023-03-17T10:53:18.281Z,39.67
2023-03-17T10:55:50.888Z,38.58
2023-03-17T10:58:20.327Z,36.71
2023-03-17T11:00:57.752Z,34.73
2023-03-17T11:03:29.995Z,35.61
2023-03-17T11:08:24.919Z,38.74
2023-03-17T11:10:56.823Z,40.02
2023-03-17T11:13:29.170Z,40.59
2023-03-17T11:16:23.312Z,40.64
2023-03-17T11:18:54.463Z,40.19
2023-03-17T11:21:27.496Z,39.91
2023-03-17T11:24:01.493Z,38.56
2023-03-17T11:26:41.314Z,39.04
2023-03-17T11:29:30.293Z,37.96
2023-03-17T11:32:16.526Z,37.96
2023-03-17T11:35:02.232Z,38.19
2023-03-17T11:38:03.000Z,39.04
2023-03-17T11:40:36.109Z,40.57
2023-03-17T11:43:18.936Z,41.07
2023-03-17T11:45:57.306Z,40.36
2023-03-17T11:48:29.925Z,39.96
2023-03-17T11:51:15.522Z,39.42
2023-03-17T11:53:53.630Z,39.17
2023-03-17T11:56:25.290Z,38.34
2023-03-17T11:58:57.374Z,39.20
2023-03-17T12:01:29.050Z,39.21
2023-03-17T12:04:20.316Z,39.36
2023-03-17T12:06:51.310Z,38.97
2023-03-17T12:09:39.477Z,39.46
2023-03-17T12:12:13.788Z,38.33
2023-03-17T12:14:48.647Z,39.15
2023-03-17T12:17:21.477Z,38.67
2023-03-17T12:19:58.365Z,38.67
2023-03-17T12:22:34.034Z,38.58
2023-03-17T12:25:12.553Z,38.36
2023-03-17T12:27:48.161Z,38.70
2023-03-17T12:30:29.087Z,38.85
2023-03-17T12:33:21.225Z,39.74
2023-03-17T12:35:47.954Z,39.74
2023-03-17T12:38:22.837Z,40.32
2023-03-17T12:41:05.498Z,39.62
2023-03-17T12:43:42.319Z,39.97
2023-03-17T12:46:38.278Z,40.13
2023-03-17T12:49:24.283Z,39.58
2023-03-17T12:52:16.739Z,39.67
2023-03-17T12:54:49.762Z,39.99
2023-03-17T12:57:30.938Z,39.91
2023-03-17T13:00:20.287Z,39.49
2023-03-17T13:02:51.017Z,39.46
2023-03-17T13:05:28.567Z,39.04
2023-03-17T13:07:57.311Z,39.82
2023-03-17T13:10:42.521Z,39.94
2023-03-17T13:13:23.141Z,39.94
2023-03-17T13:15:55.337Z,39.81
2023-03-17T13:18:33.989Z,39.60
2023-03-17T13:21:00.803Z,39.03
2023-03-17T13:23:43.969Z,38.51
2023-03-17T13:26:18.177Z,39.31
2023-03-17T13:28:50.176Z,39.20
2023-03-17T13:31:16.620Z,39.82
2023-03-17T13:33:54.522Z,40.30
2023-03-17T13:36:44.316Z,40.39
2023-03-17T13:39:28.369Z,40.81
2023-03-17T13:42:18.643Z,41.19
2023-03-17T13:45:19.632Z,41.35
2023-03-17T13:47:46.998Z,41.79
2023-03-17T13:50:17.534Z,41.40
2023-03-17T13:53:01.777Z,41.63
2023-03-17T13:55:36.214Z,40.81
2023-03-17T13:58:11.122Z,41.65
2023-03-17T14:00:41.242Z,42.14
2023-03-17T14:03:13.903Z,40.60
2023-03-17T14:05:41.656Z,40.46
2023-03-17T14:08:34.716Z,40.87
2023-03-17T14:11:19.401Z,40.96
2023-03-17T14:13:51.713Z,40.39
2023-03-17T14:16:26.437Z,40.46
2023-03-17T14:19:00.277Z,40.09
2023-03-17T14:21:35.960Z,40.72
2023-03-17T14:24:24.500Z,41.52
2023-03-17T14:26:52.323Z,39.65
2023-03-17T14:29:25.204Z,38.74
2023-03-17T14:32:02.390Z,38.53
2023-03-17T14:34:28.955Z,38.68
2023-03-17T14:37:00.726Z,38.33
2023-03-17T14:39:27.198Z,38.99
2023-03-17T14:41:59.200Z,39.30
2023-03-17T14:44:25.992Z,39.43
2023-03-17T14:47:02.261Z,40.15
2023-03-17T14:49:30.788Z,40.64
2023-03-17T14:51:58.268Z,40.30
2023-03-17T14:54:34.121Z,40.28
2023-03-17T14:57:13.552Z,40.09
2023-03-17T14:59:55.012Z,39.66
2023-03-17T15:02:27.742Z,40.34
2023-03-17T15:05:01.238Z,41.05
2023-03-17T15:07:42.941Z,40.71
2023-03-17T15:10:19.241Z,40.48
2023-03-17T15:12:46.713Z,40.98
2023-03-17T15:15:27.813Z,41.47
2023-03-17T15:17:56.878Z,41.78
2023-03-17T15:20:24.329Z,42.73
2023-03-17T15:23:04.343Z,42.58
2023-03-17T15:25:39.266Z,42.79
2023-03-17T15:28:12.739Z,43.00
2023-03-17T15:30:47.683Z,42.76
2023-03-17T15:33:34.565Z,43.27
2023-03-17T15:36:01.566Z,43.34
2023-03-17T15:38:28.694Z,43.79
2023-03-17T15:40:55.076Z,43.18
2023-03-17T15:43:22.487Z,44.23
2023-03-17T15:45:59.917Z,43.85
2023-03-17T15:48:29.828Z,43.85
2023-03-17T15:50:59.900Z,44.34
2023-03-17T15:53:26.827Z,44.34
2023-03-17T15:55:53.350Z,44.33
2023-03-17T15:58:20.317Z,45.08
2023-03-17T16:00:51.785Z,45.28
2023-03-17T16:03:32.210Z,45.51
2023-03-17T16:06:00.491Z,46.31
2023-03-17T16:08:27.027Z,46.55
2023-03-17T16:10:53.456Z,45.40
2023-03-17T16:13:20.269Z,44.94
2023-03-17T16:15:56.538Z,42.15
2023-03-17T16:18:32.694Z,41.41
2023-03-17T16:20:59.719Z,40.97
2023-03-17T16:23:29.627Z,41.00
2023-03-17T16:26:07.883Z,40.10
2023-03-17T16:28:41.122Z,40.26
2023-03-17T16:31:24.343Z,41.14
2023-03-17T16:33:53.476Z,40.32
2023-03-17T16:36:21.642Z,40.00
2023-03-17T16:38:49.108Z,40.27
2023-03-17T16:41:21.371Z,40.66
2023-03-17T16:44:01.918Z,40.62
2023-03-17T16:46:34.616Z,40.87
2023-03-17T16:49:01.890Z,40.51
2023-03-17T16:51:28.265Z,40.68
2023-03-17T16:53:56.016Z,40.42
2023-03-17T16:56:24.620Z,40.78
2023-03-17T16:58:51.147Z,41.81
2023-03-17T17:01:24.858Z,41.46
2023-03-17T17:03:51.316Z,41.02
2023-03-17T17:06:18.970Z,41.59
2023-03-17T17:08:46.750Z,41.31
2023-03-17T17:11:14.981Z,41.81
2023-03-17T17:13:42.848Z,41.23
2023-03-17T17:16:29.864Z,41.16
2023-03-17T17:18:57.403Z,40.55
2023-03-17T17:21:23.900Z,40.69
2023-03-17T17:23:52.826Z,40.58
2023-03-17T17:26:19.432Z,40.81
2023-03-17T17:28:45.913Z,41.35
2023-03-17T17:31:12.353Z,41.27
2023-03-17T17:33:39.024Z,41.56
2023-03-17T17:36:11.621Z,41.43
2023-03-17T17:38:38.107Z,41.11
2023-03-17T17:41:06.770Z,41.63
2023-03-17T17:43:33.332Z,41.91
2023-03-17T17:45:59.932Z,42.70
2023-03-17T17:48:27.974Z,42.83
2023-03-17T17:50:56.059Z,42.78
2023-03-17T17:53:22.897Z,42.48
2023-03-17T17:55:50.222Z,42.80
2023-03-17T17:58:20.026Z,42.63
2023-03-17T18:00:46.692Z,42.68
2023-03-17T18:03:13.281Z,42.57
2023-03-17T18:05:40.048Z,43.35
2023-03-17T18:08:06.640Z,43.78
2023-03-17T18:10:34.248Z,44.50
2023-03-17T18:13:00.972Z,44.75
2023-03-17T18:15:27.807Z,44.83
2023-03-17T18:17:54.618Z,45.16
2023-03-17T18:20:23.206Z,45.36
2023-03-17T18:22:50.857Z,45.55
2023-03-17T18:25:19.095Z,45.24
2023-03-17T18:27:47.135Z,45.83
2023-03-17T18:30:20.673Z,46.21
2023-03-17T18:32:49.690Z,46.39
2023-03-17T18:35:19.521Z,46.37
2023-03-17T18:37:46.190Z,46.28
2023-03-17T18:40:16.403Z,46.56
2023-03-17T18:42:45.628Z,46.85
2023-03-17T18:45:12.578Z,47.27
2023-03-17T18:47:40.066Z,47.24
2023-03-17T18:50:08.260Z,47.42
2023-03-17T18:52:37.234Z,47.33
2023-03-17T18:55:05.371Z,47.52
2023-03-17T18:57:32.164Z,47.79
2023-03-17T18:59:58.592Z,47.83
2023-03-17T19:02:25.216Z,48.29
2023-03-17T19:04:51.660Z,48.59
2023-03-17T19:07:18.491Z,48.50
2023-03-17T19:09:45.131Z,48.26
2023-03-17T19:12:12.122Z,48.61
2023-03-17T19:14:38.858Z,48.29
2023-03-17T19:17:05.549Z,48.45
2023-03-17T19:19:33.382Z,48.27
2023-03-17T19:22:00.308Z,48.24
2023-03-17T19:24:27.396Z,48.52
2023-03-17T19:26:53.879Z,48.84
2023-03-17T19:29:20.323Z,49.52
2023-03-17T19:31:48.477Z,49.79
2023-03-17T19:34:15.350Z,49.67
2023-03-17T19:36:46.258Z,50.13
2023-03-17T19:39:13.718Z,50.10
2023-03-17T19:41:40.367Z,49.77
2023-03-17T19:44:06.931Z,49.53
2023-03-17T19:46:37.137Z,49.78
2023-03-17T19:49:04.751Z,49.96
2023-03-17T19:51:32.817Z,49.85
2023-03-17T19:53:59.545Z,49.99
2023-03-17T19:56:27.875Z,49.83
2023-03-17T19:58:54.890Z,48.98
2023-03-17T20:01:22.157Z,48.71
2023-03-17T20:03:48.891Z,48.88
2023-03-17T20:06:15.586Z,48.54
2023-03-17T20:08:43.319Z,48.11
2023-03-17T20:11:14.102Z,48.88
2023-03-17T20:14:01.644Z,48.41
2023-03-17T20:16:31.321Z,48.20
2023-03-17T20:18:57.909Z,48.16
2023-03-17T20:21:24.395Z,48.66
2023-03-17T20:23:51.178Z,48.61
2023-03-17T20:26:17.677Z,48.47
2023-03-17T20:28:44.066Z,48.34
2023-03-17T20:31:10.736Z,48.36
2023-03-17T20:33:37.177Z,49.00
2023-03-17T20:36:04.626Z,48.64
2023-03-17T20:38:33.332Z,48.28
2023-03-17T20:41:13.690Z,49.13
2023-03-17T20:43:40.431Z,48.45
2023-03-17T20:46:15.065Z,48.71
2023-03-17T20:48:41.659Z,48.20
2023-03-17T20:51:15.570Z,48.54
2023-03-17T20:53:46.783Z,48.39
2023-03-17T20:56:19.657Z,48.39
2023-03-17T20:58:47.006Z,49.04
2023-03-17T21:01:14.875Z,48.57
2023-03-17T21:03:42.802Z,48.51
2023-03-17T21:06:10.475Z,48.50
2023-03-17T21:08:38.053Z,48.26
2023-03-17T21:11:06.956Z,48.35
2023-03-17T21:13:34.828Z,48.88
2023-03-17T21:16:02.197Z,48.35
2023-03-17T21:18:29.548Z,48.46
2023-03-17T21:20:56.675Z,48.30
2023-03-17T21:23:23.771Z,48.52
2023-03-17T21:25:56.394Z,48.28
2023-03-17T21:28:23.540Z,48.76
2023-03-17T21:30:50.202Z,48.77
2023-03-17T21:33:16.668Z,48.69
2023-03-17T21:35:43.176Z,48.80
2023-03-17T21:38:10.068Z,48.81
2023-03-17T21:40:36.462Z,48.93
2023-03-17T21:43:03.672Z,49.00
2023-03-17T21:45:30.306Z,48.96
2023-03-17T21:47:56.829Z,49.15
2023-03-17T21:50:23.318Z,48.96
2023-03-17T21:52:49.883Z,49.04
2023-03-17T21:55:16.520Z,49.35
2023-03-17T21:57:43.150Z,49.38
2023-03-17T22:00:11.662Z,49.44
2023-03-17T22:02:38.058Z,49.87
2023-03-17T22:05:05.325Z,49.43
2023-03-17T22:08:02.605Z,49.74
2023-03-17T22:10:29.321Z,49.97
2023-03-17T22:13:10.285Z,49.89
2023-03-17T22:15:40.957Z,49.99
2023-03-17T22:18:51.890Z,50.49
2023-03-17T22:21:33.837Z,50.63
2023-03-17T22:24:12.581Z,50.29
2023-03-17T22:26:39.100Z,50.94
2023-03-17T22:29:05.486Z,51.35
2023-03-17T22:31:45.353Z,51.66
2023-03-17T22:34:26.676Z,52.08
2023-03-17T22:36:53.032Z,52.13
2023-03-17T22:39:19.452Z,52.01
2023-03-17T22:41:46.085Z,52.22
2023-03-17T22:44:12.596Z,51.80
2023-03-17T22:46:42.833Z,51.93
2023-03-17T22:49:10.227Z,51.95
2023-03-17T22:51:42.579Z,51.80
2023-03-17T22:54:11.208Z,52.24
2023-03-17T22:56:37.669Z,52.23
2023-03-17T22:59:04.283Z,52.23
2023-03-17T23:01:31.841Z,52.28
2023-03-17T23:03:58.358Z,52.46
2023-03-17T23:06:25.052Z,52.55
2023-03-17T23:08:52.177Z,52.77
2023-03-17T23:11:22.973Z,52.48
2023-03-17T23:13:50.562Z,52.49
2023-03-17T23:16:17.100Z,52.90
2023-03-17T23:18:46.689Z,52.76
2023-03-17T23:21:35.857Z,52.90
2023-03-17T23:24:03.758Z,53.16
2023-03-17T23:26:31.854Z,53.00
2023-03-17T23:28:58.470Z,53.13
2023-03-17T23:31:25.469Z,53.39
2023-03-17T23:33:52.553Z,53.64
2023-03-17T23:36:19.560Z,53.81
2023-03-17T23:38:46.324Z,53.80
2023-03-17T23:41:14.299Z,53.88
2023-03-17T23:43:41.174Z,53.83
2023-03-17T23:46:08.259Z,53.72
2023-03-17T23:48:34.687Z,53.93
2023-03-17T23:51:02.892Z,54.11
2023-03-17T23:53:29.338Z,54.63
2023-03-17T23:55:55.698Z,54.48
2023-03-17T23:58:22.852Z,54.62
